Time;durP1;ratioP1;P1;durP2;ratioP2;P2;SDS_P1;SDS_P2;PMS_P1;PMS_P2;Temp;Humidity;BMP_temperature;BMP_pressure;BME280_temperature;BME280_humidity;BME280_pressure;Samples;Min_cycle;Max_cycle;Signal;HPM_P1;HPM_P2
2022/09/23 00:00:21;;;;;;;5.78;5.07;;;;;;;10.94;61.71;94845.19;4210857;28;20887;-59
2022/09/23 00:02:23;;;;;;;6.40;5.75;;;;;;;10.94;61.60;94848.63;4204668;28;20132;-58
2022/09/23 00:04:26;;;;;;;7.95;5.03;;;;;;;10.93;61.52;94843.56;4197017;28;20044;-58
2022/09/23 00:06:28;;;;;;;5.63;4.97;;;;;;;10.95;61.42;94844.19;4209530;28;20078;-58
2022/09/23 00:08:30;;;;;;;9.93;6.00;;;;;;;10.75;62.10;94846.25;4211758;28;20076;-57
2022/09/23 00:10:34;;;;;;;7.45;5.68;;;;;;;10.70;62.43;94838.03;4212597;28;20109;-58
2022/09/23 00:12:36;;;;;;;7.05;5.78;;;;;;;10.64;62.48;94837.69;4212577;28;20484;-59
2022/09/23 00:14:38;;;;;;;5.95;5.35;;;;;;;10.61;62.43;94843.25;4212248;28;20091;-59
2022/09/23 00:16:40;;;;;;;7.03;5.80;;;;;;;10.28;62.99;94836.13;4208351;28;20052;-59
2022/09/23 00:18:42;;;;;;;11.13;6.30;;;;;;;9.95;64.55;94838.50;4196491;28;20052;-58
2022/09/23 00:20:44;;;;;;;7.22;6.53;;;;;;;9.74;65.86;94839.63;4196933;28;20076;-57
2022/09/23 00:22:45;;;;;;;6.57;5.70;;;;;;;9.76;65.92;94836.88;4202593;28;20127;-58
2022/09/23 00:24:47;;;;;;;6.18;5.53;;;;;;;9.78;65.23;94833.13;4212605;28;20467;-58
2022/09/23 00:26:50;;;;;;;8.70;6.13;;;;;;;9.89;65.00;94836.50;4212573;28;20051;-58
2022/09/23 00:28:52;;;;;;;7.28;5.80;;;;;;;10.01;64.37;94837.91;4212515;28;20139;-57
2022/09/23 00:30:53;;;;;;;6.20;5.60;;;;;;;10.13;63.94;94831.47;4201156;28;20127;-58
2022/09/23 00:32:55;;;;;;;7.03;6.00;;;;;;;10.22;64.20;94834.97;4199178;28;20048;-67
2022/09/23 00:34:57;;;;;;;6.60;5.75;;;;;;;10.33;63.30;94828.69;4212662;28;20128;-68
2022/09/23 00:36:58;;;;;;;6.32;5.72;;;;;;;10.42;63.30;94844.28;4212576;28;20071;-65
2022/09/23 00:39:02;;;;;;;8.60;5.55;;;;;;;10.49;62.94;94836.63;4212747;28;20477;-66
2022/09/23 00:41:05;;;;;;;7.10;6.28;;;;;;;10.51;62.87;94824.19;4209443;28;20870;-65
2022/09/23 00:43:10;;;;;;;6.78;5.70;;;;;;;10.27;63.04;94834.50;4195567;28;20091;-66
2022/09/23 00:45:12;;;;;;;7.95;5.82;;;;;;;9.93;64.16;94837.84;4202987;28;20079;-65
2022/09/23 00:47:54;;;;;;;7.38;6.07;;;;;;;9.55;65.38;94835.41;4205005;28;20047;-69
2022/09/23 00:50:11;;;;;;;7.13;6.15;;;;;;;8.85;67.92;94842.97;4208976;28;20583;-66
2022/09/23 00:52:17;;;;;;;9.35;8.38;;;;;;;8.73;69.21;94841.50;4205671;28;20062;-66
2022/09/23 00:54:20;;;;;;;12.48;9.48;;;;;;;8.99;68.74;94839.91;4206227;28;20131;-65
2022/09/23 00:56:22;;;;;;;8.85;7.68;;;;;;;9.20;68.25;94842.22;4207977;28;20047;-56
2022/09/23 00:58:26;;;;;;;9.88;7.88;;;;;;;9.31;67.78;94838.56;4210739;28;20775;-56
2022/09/23 01:00:28;;;;;;;9.60;8.32;;;;;;;9.34;67.36;94840.91;4201971;28;20060;-57
2022/09/23 01:02:30;;;;;;;7.65;6.85;;;;;;;9.31;67.02;94843.81;4206460;28;20052;-56
2022/09/23 01:04:32;;;;;;;11.15;7.70;;;;;;;9.13;67.69;94841.19;4195522;28;20049;-60
2022/09/23 01:06:34;;;;;;;9.05;7.53;;;;;;;8.76;68.96;94846.47;4208816;28;20151;-59
2022/09/23 01:08:36;;;;;;;9.00;7.43;;;;;;;8.95;68.79;94835.91;4212118;28;20140;-58
2022/09/23 01:10:43;;;;;;;8.32;7.45;;;;;;;9.17;67.83;94841.72;4211839;28;20580;-59
2022/09/23 01:13:15;;;;;;;7.85;7.05;;;;;;;9.38;67.10;94844.06;4211685;28;20522;-58
2022/09/23 01:15:37;;;;;;;8.68;7.60;;;;;;;9.57;66.44;94835.25;4209045;28;20492;-59
2022/09/23 01:18:00;;;;;;;9.60;6.88;;;;;;;9.58;66.01;94839.50;4209783;28;20436;-59
2022/09/23 01:20:44;;;;;;;9.93;6.93;;;;;;;9.35;66.69;94832.09;4210831;28;20127;-58
2022/09/23 01:23:07;;;;;;;8.60;7.25;;;;;;;8.98;67.47;94835.63;4193258;28;20048;-65
2022/09/23 01:25:20;;;;;;;9.75;7.63;;;;;;;8.69;68.82;94842.75;4210019;28;20138;-67
2022/09/23 01:27:34;;;;;;;10.32;7.82;;;;;;;8.10;70.81;94847.31;4209573;28;20090;-67
2022/09/23 01:30:07;;;;;;;10.27;8.02;;;;;;;8.06;71.21;94851.97;4210357;28;20134;-65
2022/09/23 01:32:30;;;;;;;9.95;8.02;;;;;;;8.12;70.91;94845.38;4190246;28;20554;-66
2022/09/23 01:34:33;;;;;;;10.35;7.03;;;;;;;8.11;71.07;94855.00;4209451;28;20052;-65
2022/09/23 01:36:42;;;;;;;7.97;7.18;;;;;;;8.28;70.69;94850.00;4210792;28;20507;-58
2022/09/23 01:38:49;;;;;;;8.35;7.40;;;;;;;8.40;69.85;94854.97;4210202;28;20075;-59
2022/09/23 01:41:00;;;;;;;9.82;7.80;;;;;;;8.63;69.37;94851.19;4198725;28;20047;-58
2022/09/23 01:43:15;;;;;;;8.65;6.72;;;;;;;8.75;69.01;94850.03;4209040;28;20087;-59
2022/09/23 01:45:24;;;;;;;7.82;7.03;;;;;;;8.91;68.54;94854.66;4205611;28;20146;-61
2022/09/23 01:47:31;;;;;;;8.52;7.57;;;;;;;9.01;68.48;94850.19;4210326;28;20056;-58
2022/09/23 01:49:49;;;;;;;10.20;6.47;;;;;;;9.13;67.79;94853.44;4203876;28;20055;-60
2022/09/23 01:52:04;;;;;;;12.80;6.82;;;;;;;9.20;67.75;94852.69;4209107;28;20080;-59
2022/09/23 01:54:22;;;;;;;7.30;6.53;;;;;;;9.28;66.98;94857.19;4211379;28;20047;-57
2022/09/23 01:56:29;;;;;;;7.85;6.47;;;;;;;9.32;66.66;94853.31;4206403;28;20048;-56
2022/09/23 01:58:55;;;;;;;7.38;6.57;;;;;;;9.35;67.43;94849.56;4195493;28;20056;-56
2022/09/23 02:01:00;;;;;;;6.60;5.90;;;;;;;9.42;66.78;94845.38;4203355;28;20079;-57
2022/09/23 02:03:26;;;;;;;6.95;6.25;;;;;;;9.41;67.07;94855.03;4209494;28;20058;-59
2022/09/23 02:05:36;;;;;;;8.40;6.75;;;;;;;9.32;66.73;94848.09;4208310;28;20101;-58
2022/09/23 02:07:50;;;;;;;7.70;6.63;;;;;;;9.33;67.31;94848.91;4210546;28;20504;-56
2022/09/23 02:10:16;;;;;;;9.75;6.32;;;;;;;9.36;67.35;94851.22;4208999;28;20565;-57
2022/09/23 02:12:20;;;;;;;7.20;5.93;;;;;;;9.37;67.29;94847.63;4195310;28;20044;-58
2022/09/23 02:14:24;;;;;;;7.18;6.28;;;;;;;9.42;67.07;94843.63;4194036;28;20122;-57
2022/09/23 02:16:43;;;;;;;6.95;6.25;;;;;;;9.48;66.65;94847.41;4207357;28;20051;-57
2022/09/23 02:18:51;;;;;;;7.20;6.50;;;;;;;9.32;66.54;94849.88;4209920;28;20048;-56
2022/09/23 02:20:57;;;;;;;7.53;6.65;;;;;;;9.07;68.44;94848.78;4206848;28;20079;-57
2022/09/23 02:23:20;;;;;;;7.95;6.65;;;;;;;9.08;68.03;94847.81;4209932;28;20135;-57
2022/09/23 02:25:32;;;;;;;7.43;6.72;;;;;;;9.23;68.38;94849.78;4200358;28;20044;-58
2022/09/23 02:27:48;;;;;;;9.70;7.50;;;;;;;8.88;68.74;94842.69;4211440;28;20048;-55
2022/09/23 02:30:17;;;;;;;7.93;6.72;;;;;;;8.58;69.99;94856.81;4207670;28;20079;-55
2022/09/23 02:32:36;;;;;;;7.78;6.97;;;;;;;8.39;70.37;94842.84;4209533;28;20071;-56
2022/09/23 02:34:49;;;;;;;7.53;6.68;;;;;;;8.31;71.42;94847.13;4208042;28;20448;-56
2022/09/23 02:37:01;;;;;;;8.38;7.47;;;;;;;8.37;71.01;94844.78;4201315;28;20492;-56
2022/09/23 02:39:07;;;;;;;12.50;7.53;;;;;;;8.33;70.44;94843.41;4213395;28;20430;-55
2022/09/23 02:41:12;;;;;;;9.88;8.05;;;;;;;8.38;70.55;94835.16;4212503;28;20097;-57
2022/09/23 02:43:45;;;;;;;8.65;7.25;;;;;;;8.19;71.36;94839.47;4206141;28;20483;-58
2022/09/23 02:45:47;;;;;;;12.52;8.75;;;;;;;8.15;71.35;94851.16;4211658;28;20079;-57
2022/09/23 02:47:52;;;;;;;9.38;7.47;;;;;;;8.00;71.50;94853.38;4208367;28;20058;-57
2022/09/23 02:49:55;;;;;;;8.57;6.93;;;;;;;7.97;71.82;94850.22;4205704;28;20048;-54
2022/09/23 02:52:04;;;;;;;10.25;7.45;;;;;;;8.01;71.78;94859.41;4212808;28;20473;-57
2022/09/23 02:54:09;;;;;;;9.18;6.95;;;;;;;7.90;72.24;94849.94;4207684;28;20040;-58
2022/09/23 02:56:19;;;;;;;9.13;7.30;;;;;;;7.89;71.69;94857.91;4209086;28;20048;-64
2022/09/23 02:58:38;;;;;;;9.80;8.18;;;;;;;7.80;72.00;94852.56;4211450;28;20043;-65
2022/09/23 03:00:58;;;;;;;8.85;7.93;;;;;;;7.87;72.62;94859.81;4210394;28;20079;-63
2022/09/23 03:03:10;;;;;;;9.32;7.38;;;;;;;7.84;72.48;94857.50;4210492;28;20059;-64
2022/09/23 03:05:22;;;;;;;9.75;7.22;;;;;;;7.86;72.46;94860.81;4212570;28;20408;-68
2022/09/23 03:07:54;;;;;;;8.70;7.28;;;;;;;7.93;71.70;94860.09;4212670;28;20048;-64
2022/09/23 03:10:21;;;;;;;9.75;6.82;;;;;;;7.97;71.47;94866.69;4210211;28;20048;-64
2022/09/23 03:12:51;;;;;;;9.18;7.22;;;;;;;8.06;71.27;94864.22;4203240;28;20135;-65
2022/09/23 03:15:08;;;;;;;10.88;6.80;;;;;;;8.28;70.52;94861.31;4207664;28;20252;-64
2022/09/23 03:17:18;;;;;;;8.57;6.25;;;;;;;8.25;69.71;94863.34;4200835;28;20503;-64
2022/09/23 03:19:34;;;;;;;6.78;5.97;;;;;;;8.36;69.48;94861.41;4212781;28;20123;-64
2022/09/23 03:22:10;;;;;;;8.57;6.15;;;;;;;8.38;68.82;94854.25;4206236;28;20072;-64
2022/09/23 03:24:13;;;;;;;6.50;5.80;;;;;;;8.46;68.98;94850.97;4210815;28;20567;-66
2022/09/23 03:26:22;;;;;;;7.00;5.90;;;;;;;8.51;68.80;94853.97;4211981;28;20524;-67
2022/09/23 03:28:24;;;;;;;9.27;5.78;;;;;;;8.55;68.74;94847.50;4209550;28;20508;-65
2022/09/23 03:30:26;;;;;;;8.38;5.93;;;;;;;8.29;68.89;94860.31;4209117;28;20052;-65
2022/09/23 03:32:28;;;;;;;7.40;6.28;;;;;;;8.11;69.39;94854.16;4212206;28;20083;-67
2022/09/23 03:34:32;;;;;;;7.40;6.30;;;;;;;8.13;70.05;94853.09;4209374;28;20052;-65
2022/09/23 03:36:50;;;;;;;9.38;6.70;;;;;;;8.25;69.94;94855.53;4212007;28;20044;-63
2022/09/23 03:38:58;;;;;;;7.63;6.40;;;;;;;8.06;70.17;94857.19;4212418;28;20058;-65
2022/09/23 03:41:03;;;;;;;7.35;6.30;;;;;;;7.87;70.87;94859.81;4202201;28;20123;-65
2022/09/23 03:43:04;;;;;;;8.77;7.03;;;;;;;7.64;71.66;94861.91;4205895;28;20131;-62
2022/09/23 03:45:11;;;;;;;9.82;6.93;;;;;;;7.58;72.10;94861.47;4196099;28;20080;-67
2022/09/23 03:47:15;;;;;;;8.65;7.38;;;;;;;7.36;73.42;94866.97;4209314;28;20132;-66
2022/09/23 03:49:23;;;;;;;9.90;7.60;;;;;;;7.42;73.26;94857.75;4213449;28;20540;-66
2022/09/23 03:51:24;;;;;;;12.45;7.50;;;;;;;7.44;72.94;94861.88;4208626;28;20044;-67
2022/09/23 03:53:26;;;;;;;8.68;7.72;;;;;;;7.44;73.20;94859.28;4213154;28;20048;-64
2022/09/23 03:55:28;;;;;;;10.27;7.82;;;;;;;7.36;73.02;94873.00;4211949;28;20048;-65
2022/09/23 03:57:30;;;;;;;11.07;7.57;;;;;;;7.37;72.74;94869.41;4209756;28;20138;-64
2022/09/23 03:59:32;;;;;;;8.75;7.72;;;;;;;7.21;73.57;94866.53;4211189;28;20080;-66
2022/09/23 04:01:34;;;;;;;10.45;8.20;;;;;;;7.10;73.38;94870.06;4211090;28;20088;-65
2022/09/23 04:03:36;;;;;;;15.45;8.90;;;;;;;6.87;73.93;94871.22;4207660;28;20554;-63
2022/09/23 04:05:37;;;;;;;12.95;9.27;;;;;;;6.74;75.04;94868.84;4210267;28;20044;-66
2022/09/23 04:07:39;;;;;;;14.73;9.40;;;;;;;6.67;75.55;94880.75;4212430;28;20162;-66
2022/09/23 04:09:43;;;;;;;14.60;10.52;;;;;;;6.54;75.61;94878.38;4207685;28;20048;-64
2022/09/23 04:11:44;;;;;;;11.77;9.80;;;;;;;6.43;76.04;94875.84;4211117;28;20143;-64
2022/09/23 04:13:46;;;;;;;22.05;10.93;;;;;;;6.41;76.18;94877.75;4209554;28;20052;-67
2022/09/23 04:15:49;;;;;;;15.25;10.57;;;;;;;6.43;76.48;94875.84;4209202;28;20205;-64
2022/09/23 04:17:50;;;;;;;15.07;11.02;;;;;;;6.30;76.98;94876.03;4212923;28;20126;-66
2022/09/23 04:19:52;;;;;;;16.67;12.68;;;;;;;6.24;77.33;94879.16;4209685;28;20134;-66
2022/09/23 04:21:54;;;;;;;19.08;13.90;;;;;;;6.01;78.60;94887.09;4210755;28;20079;-66
2022/09/23 04:23:55;;;;;;;18.23;14.73;;;;;;;5.95;79.24;94890.19;4208789;28;20048;-64
2022/09/23 04:25:57;;;;;;;20.38;15.98;;;;;;;5.95;79.56;94890.19;4210090;28;20129;-64
2022/09/23 04:27:59;;;;;;;24.20;16.17;;;;;;;6.00;79.20;94888.06;4209599;28;20175;-66
2022/09/23 04:30:01;;;;;;;22.00;16.80;;;;;;;6.03;79.86;94889.59;4207794;28;20051;-65
2022/09/23 04:32:02;;;;;;;21.98;15.65;;;;;;;6.01;79.94;94884.50;4208381;28;20193;-67
2022/09/23 04:34:04;;;;;;;17.13;14.55;;;;;;;5.91;79.45;94886.97;4210014;28;20511;-67
2022/09/23 04:36:06;;;;;;;19.73;15.27;;;;;;;5.95;80.13;94901.41;4210027;28;20055;-66
2022/09/23 04:38:11;;;;;;;17.45;13.77;;;;;;;5.77;80.19;94904.69;4208911;28;20055;-65
2022/09/23 04:40:13;;;;;;;18.30;11.98;;;;;;;5.71;80.33;94901.63;4199429;28;20140;-64
2022/09/23 04:42:15;;;;;;;14.27;12.25;;;;;;;5.82;79.30;94905.94;4211977;28;20123;-65
2022/09/23 04:44:16;;;;;;;19.95;11.88;;;;;;;6.02;78.76;94903.53;4205757;28;20086;-66
2022/09/23 04:46:18;;;;;;;14.18;11.25;;;;;;;6.16;78.50;94911.03;4209909;28;20063;-66
2022/09/23 04:48:20;;;;;;;15.02;11.30;;;;;;;6.34;77.70;94908.66;4211356;28;20140;-67
2022/09/23 04:50:22;;;;;;;14.70;11.45;;;;;;;6.36;77.46;94912.78;4211919;28;20449;-66
2022/09/23 04:52:24;;;;;;;15.40;10.90;;;;;;;6.56;77.14;94913.72;4204991;28;20132;-67
2022/09/23 04:54:26;;;;;;;12.65;11.18;;;;;;;6.73;76.39;94919.25;4211819;28;20052;-65
2022/09/23 04:56:32;;;;;;;13.02;10.80;;;;;;;6.94;75.69;94911.41;4206141;28;20119;-64
2022/09/23 04:58:34;;;;;;;15.63;11.50;;;;;;;7.05;74.80;94915.69;4210684;28;20052;-65
2022/09/23 05:00:36;;;;;;;13.68;11.23;;;;;;;7.22;75.08;94924.66;4197289;28;20079;-65
2022/09/23 05:02:45;;;;;;;15.77;11.32;;;;;;;7.35;74.17;94920.84;4196447;28;20127;-64
2022/09/23 05:04:47;;;;;;;14.43;11.15;;;;;;;7.30;74.36;94917.00;4204460;28;20048;-64
2022/09/23 05:06:48;;;;;;;15.25;10.35;;;;;;;7.39;73.97;94921.41;4211473;28;20048;-67
2022/09/23 05:08:53;;;;;;;14.25;10.23;;;;;;;7.55;73.84;94921.72;4210618;28;20159;-64
2022/09/23 05:10:58;;;;;;;13.13;10.55;;;;;;;7.71;72.99;94921.19;4211192;28;21354;-66
2022/09/23 05:13:00;;;;;;;14.55;10.88;;;;;;;7.69;72.73;94917.06;4211320;28;20106;-66
2022/09/23 05:15:02;;;;;;;16.65;10.48;;;;;;;7.75;72.90;94927.78;4210674;28;20113;-66
2022/09/23 05:17:05;;;;;;;14.30;10.80;;;;;;;7.84;72.88;94927.94;4208131;28;20079;-64
2022/09/23 05:19:06;;;;;;;12.65;10.38;;;;;;;7.85;72.35;94925.19;4212217;28;20131;-65
2022/09/23 05:21:14;;;;;;;12.38;10.02;;;;;;;7.82;72.64;94927.25;4210277;28;20059;-57
2022/09/23 05:23:16;;;;;;;14.02;10.60;;;;;;;7.85;72.68;94937.38;4209917;28;20054;-59
2022/09/23 05:25:18;;;;;;;11.32;10.13;;;;;;;7.99;72.10;94932.59;4210282;28;20048;-58
2022/09/23 05:27:20;;;;;;;14.40;10.07;;;;;;;7.93;71.64;94938.34;4211021;28;20040;-58
2022/09/23 05:29:21;;;;;;;15.85;10.70;;;;;;;7.99;71.75;94935.19;4212026;28;20048;-57
2022/09/23 05:31:26;;;;;;;12.80;10.55;;;;;;;7.93;72.25;94938.34;4210497;28;20477;-55
2022/09/23 05:33:28;;;;;;;15.25;10.88;;;;;;;7.91;72.21;94948.09;4210573;28;20151;-58
2022/09/23 05:35:30;;;;;;;14.65;10.23;;;;;;;7.76;72.26;94934.63;4211142;28;20135;-58
2022/09/23 05:37:32;;;;;;;10.40;9.27;;;;;;;7.76;72.19;94937.25;4207710;28;20066;-56
2022/09/23 05:39:34;;;;;;;10.65;9.55;;;;;;;7.78;72.02;94935.31;4210710;28;20084;-59
2022/09/23 05:41:35;;;;;;;11.13;9.65;;;;;;;7.83;72.01;94936.69;4211275;28;20127;-57
2022/09/23 05:43:37;;;;;;;11.82;9.20;;;;;;;7.84;71.84;94935.75;4206343;28;20131;-60
2022/09/23 05:45:39;;;;;;;12.20;9.25;;;;;;;7.83;72.00;94934.09;4195792;28;20051;-59
2022/09/23 05:47:41;;;;;;;10.95;9.50;;;;;;;7.96;71.32;94935.50;4207408;28;20169;-59
2022/09/23 05:49:43;;;;;;;12.93;9.23;;;;;;;7.87;71.70;94936.31;4198981;28;20135;-58
2022/09/23 05:52:00;;;;;;;9.27;7.78;;;;;;;7.98;71.38;94935.34;4216146;28;20126;-60
2022/09/23 05:54:03;;;;;;;10.10;8.10;;;;;;;8.09;71.34;94932.59;4207820;28;20101;-58
2022/09/23 05:56:05;;;;;;;12.87;8.33;;;;;;;8.38;69.78;94934.34;4207859;28;20121;-56
2022/09/23 05:58:08;;;;;;;11.57;8.98;;;;;;;8.37;69.81;94927.50;4197347;28;20149;-57
2022/09/23 06:00:10;;;;;;;13.05;9.15;;;;;;;8.50;69.14;94930.66;4196182;28;20637;-56
2022/09/23 06:02:13;;;;;;;10.77;7.82;;;;;;;8.50;69.19;94941.09;4208426;28;20052;-54
2022/09/23 06:04:15;;;;;;;11.23;8.77;;;;;;;8.43;68.99;94929.56;4198399;28;20048;-58
2022/09/23 06:06:18;;;;;;;11.07;8.35;;;;;;;8.53;68.71;94930.38;4200828;28;20140;-58
2022/09/23 06:08:21;;;;;;;8.68;7.78;;;;;;;8.38;69.20;94929.94;4202724;28;20143;-60
2022/09/23 06:10:23;;;;;;;8.73;6.83;;;;;;;8.38;68.80;94929.13;4199544;28;20080;-59
2022/09/23 06:12:25;;;;;;;8.05;7.03;;;;;;;8.35;69.10;94922.41;4208666;28;20136;-60
2022/09/23 06:14:27;;;;;;;10.02;8.05;;;;;;;8.57;69.11;94923.91;4196771;28;20143;-56
2022/09/23 06:16:31;;;;;;;9.43;6.47;;;;;;;8.52;67.65;94920.91;4195028;28;20075;-58
2022/09/23 06:18:33;;;;;;;;;;;;;;;8.50;67.92;94922.81;4197277;28;20527;-59
2022/09/23 06:20:35;;;;;;;8.73;7.15;;;;;;;8.77;68.02;94929.88;4206826;28;19920;-61
2022/09/23 06:22:37;;;;;;;8.48;6.65;;;;;;;8.93;67.21;94926.69;4201694;28;20111;-57
2022/09/23 06:24:40;;;;;;;7.35;6.40;;;;;;;9.07;66.64;94935.03;4200560;28;20052;-60
2022/09/23 06:26:42;;;;;;;8.63;6.78;;;;;;;8.84;67.25;94927.56;4195643;28;20055;-58
2022/09/23 06:28:44;;;;;;;8.05;6.93;;;;;;;8.70;68.01;94935.84;4211268;28;20531;-57
2022/09/23 06:30:48;;;;;;;8.15;6.75;;;;;;;8.90;66.79;94928.75;4209285;28;20058;-58
2022/09/23 06:32:50;;;;;;;10.43;6.28;;;;;;;8.81;67.31;94923.41;4211104;28;20055;-56
2022/09/23 06:34:52;;;;;;;8.57;6.53;;;;;;;8.91;67.26;94925.19;4210488;28;20048;-59
2022/09/23 06:36:54;;;;;;;6.65;5.75;;;;;;;9.14;66.34;94920.41;4210094;28;20131;-57
2022/09/23 06:38:56;;;;;;;9.63;7.20;;;;;;;9.31;66.06;94911.78;4209793;28;20502;-58
2022/09/23 06:40:57;;;;;;;8.13;6.30;;;;;;;9.43;65.79;94915.03;4208759;28;20052;-61
2022/09/23 06:43:00;;;;;;;7.43;6.30;;;;;;;9.22;66.04;94918.72;4209551;28;20071;-57
2022/09/23 06:45:02;;;;;;;11.63;6.87;;;;;;;9.05;66.96;94926.50;4209462;28;20043;-61
2022/09/23 06:47:04;;;;;;;8.23;6.60;;;;;;;8.92;68.05;94934.66;4209022;28;20387;-68
2022/09/23 06:49:06;;;;;;;8.35;5.95;;;;;;;8.76;67.65;94937.88;4209139;28;20075;-63
2022/09/23 06:51:10;;;;;;;8.02;6.68;;;;;;;8.76;68.89;94924.81;4210567;28;20127;-66
2022/09/23 06:53:11;;;;;;;;;;;;;;;8.84;68.87;94927.56;4211973;28;20050;-66
2022/09/23 06:55:13;;;;;;;8.02;7.15;;;;;;;9.02;68.04;94930.22;4206267;28;20340;-67
2022/09/23 06:57:15;;;;;;;11.38;7.15;;;;;;;8.82;67.88;94934.72;4204137;28;20477;-64
2022/09/23 06:59:17;;;;;;;10.52;8.02;;;;;;;9.11;68.05;94933.78;4210534;28;20090;-66
2022/09/23 07:01:19;;;;;;;13.18;7.15;;;;;;;8.96;68.59;94939.47;4209011;28;20135;-64
2022/09/23 07:03:21;;;;;;;7.57;6.63;;;;;;;9.28;67.78;94946.06;4210456;28;20051;-68
2022/09/23 07:05:22;;;;;;;10.10;7.40;;;;;;;9.40;67.44;94946.72;4203294;28;20495;-68
2022/09/23 07:07:25;;;;;;;11.98;8.48;;;;;;;9.55;66.07;94942.63;4208139;28;20048;-65
2022/09/23 07:09:27;;;;;;;11.43;7.65;;;;;;;9.39;67.65;94945.88;4205093;28;20107;-66
2022/09/23 07:11:28;;;;;;;7.75;6.85;;;;;;;9.08;67.94;94952.34;4194791;28;20656;-67
2022/09/23 07:13:32;;;;;;;8.48;7.40;;;;;;;9.38;68.25;94943.41;4195367;28;20654;-66
2022/09/23 07:15:34;;;;;;;7.32;6.45;;;;;;;9.76;66.19;94946.75;4193593;28;20602;-67
2022/09/23 07:17:35;;;;;;;10.80;6.90;;;;;;;9.96;64.98;94947.44;4195213;28;20478;-65
2022/09/23 07:19:37;;;;;;;7.07;5.70;;;;;;;10.24;63.75;94943.78;4194941;28;20127;-65
2022/09/23 07:21:38;;;;;;;7.53;6.53;;;;;;;10.46;63.41;94941.69;4195674;28;20076;-67
2022/09/23 07:23:45;;;;;;;11.65;7.57;;;;;;;10.24;64.16;94946.41;4209831;28;20051;-65
2022/09/23 07:25:49;;;;;;;9.07;5.53;;;;;;;10.28;63.90;94951.31;4198291;28;20083;-68
2022/09/23 07:27:50;;;;;;;16.85;7.82;;;;;;;10.00;64.98;94943.56;4198583;28;20051;-65
2022/09/23 07:29:53;;;;;;;14.02;8.05;;;;;;;10.11;64.46;94955.59;4211517;28;20048;-65
2022/09/23 07:31:55;;;;;;;7.33;5.93;;;;;;;9.92;64.77;94962.63;4197583;28;20072;-65
2022/09/23 07:34:11;;;;;;;11.18;7.03;;;;;;;9.87;65.14;94957.00;4210573;28;20051;-64
2022/09/23 07:36:16;;;;;;;11.23;7.93;;;;;;;10.01;64.51;94955.69;4199002;28;20047;-66
2022/09/23 07:38:18;;;;;;;12.80;7.80;;;;;;;10.16;63.96;94964.66;4210703;28;20053;-66
2022/09/23 07:40:19;;;;;;;9.88;6.38;;;;;;;10.27;63.36;94968.03;4212055;28;20159;-64
2022/09/23 07:42:21;;;;;;;9.27;6.68;;;;;;;10.10;63.63;94967.88;4212753;28;20060;-66
2022/09/23 07:44:24;;;;;;;9.80;7.13;;;;;;;10.32;62.85;94960.56;4197321;28;20052;-66
2022/09/23 07:46:28;;;;;;;10.15;6.90;;;;;;;10.27;63.23;94963.59;4195743;28;20507;-65
2022/09/23 07:48:30;;;;;;;7.07;5.28;;;;;;;10.20;62.99;94968.63;4197063;28;20410;-67
2022/09/23 07:50:38;;;;;;;7.35;5.25;;;;;;;10.61;61.78;94970.78;4206574;28;20139;-68
2022/09/23 07:52:39;;;;;;;8.23;5.43;;;;;;;10.92;60.97;94968.53;4213068;28;20715;-67
2022/09/23 07:54:41;;;;;;;7.45;5.20;;;;;;;11.22;60.27;94967.22;4213179;28;20601;-67
2022/09/23 07:56:43;;;;;;;7.13;5.82;;;;;;;11.32;59.89;94966.31;4216770;28;20083;-67
2022/09/23 07:58:58;;;;;;;7.45;6.15;;;;;;;11.06;60.25;94964.53;4213316;28;20131;-65
2022/09/23 08:01:10;;;;;;;7.60;5.20;;;;;;;10.90;60.53;94959.19;4199083;28;20048;-65
2022/09/23 08:03:13;;;;;;;6.60;5.25;;;;;;;10.82;60.78;94962.59;4213276;28;20052;-65
2022/09/23 08:05:15;;;;;;;6.28;5.43;;;;;;;10.92;61.54;94973.78;4213003;28;20131;-66
2022/09/23 08:07:17;;;;;;;10.40;5.25;;;;;;;11.13;60.18;94983.09;4212663;28;20123;-64
2022/09/23 08:09:22;;;;;;;7.82;4.90;;;;;;;10.51;60.75;94976.09;4208572;28;20052;-65
2022/09/23 08:11:25;;;;;;;6.18;4.90;;;;;;;10.61;61.41;94976.03;4212417;28;20131;-65
2022/09/23 08:13:27;;;;;;;8.77;5.00;;;;;;;10.59;60.99;94978.78;4212842;28;20463;-68
2022/09/23 08:15:29;;;;;;;5.90;4.85;;;;;;;10.50;62.17;94966.63;4210508;28;20055;-66
2022/09/23 08:17:31;;;;;;;6.03;4.87;;;;;;;10.75;61.19;94964.97;4213054;28;20044;-66
2022/09/23 08:19:33;;;;;;;7.15;5.72;;;;;;;10.70;61.73;94971.69;4212630;28;20388;-68
2022/09/23 08:21:35;;;;;;;6.47;5.65;;;;;;;10.75;61.50;94959.75;4212642;28;20534;-65
2022/09/23 08:23:36;;;;;;;7.38;5.55;;;;;;;10.77;60.82;94965.66;4212159;28;20576;-70
2022/09/23 08:25:38;;;;;;;9.07;6.60;;;;;;;10.55;60.99;94958.31;4212142;28;20084;-67
2022/09/23 08:27:40;;;;;;;8.60;5.28;;;;;;;10.28;62.15;94962.63;4213143;28;20051;-64
2022/09/23 08:29:42;;;;;;;9.57;6.05;;;;;;;10.51;61.85;94956.97;4199533;28;20044;-69
2022/09/23 08:31:44;;;;;;;7.20;5.78;;;;;;;10.59;61.16;94973.56;4197448;28;20114;-66
2022/09/23 08:33:46;;;;;;;9.05;5.45;;;;;;;11.11;60.36;94964.06;4210823;28;20181;-66
2022/09/23 08:35:47;;;;;;;7.53;4.95;;;;;;;11.44;59.03;94949.28;4212064;28;20052;-66
2022/09/23 08:37:49;;;;;;;5.60;4.43;;;;;;;11.84;57.76;94945.97;4211383;28;20050;-66
2022/09/23 08:39:50;;;;;;;6.97;5.13;;;;;;;11.99;57.05;94958.53;4211922;28;20050;-67
2022/09/23 08:41:55;;;;;;;4.57;3.97;;;;;;;12.29;56.77;94952.63;4212459;28;20487;-68
2022/09/23 08:44:41;;;;;;;7.45;5.30;;;;;;;12.65;55.89;94947.06;4202862;28;20056;-67
2022/09/23 08:46:51;;;;;;;6.95;4.22;;;;;;;12.83;55.05;94953.94;4199890;28;20079;-71
2022/09/23 08:48:54;;;;;;;6.85;5.07;;;;;;;12.45;55.47;94949.22;4204163;28;20056;-68
2022/09/23 08:51:02;;;;;;;6.43;4.30;;;;;;;12.24;55.82;94962.00;4212126;28;20048;-70
2022/09/23 08:53:10;;;;;;;4.60;3.63;;;;;;;12.47;54.30;94956.91;4199578;28;20093;-68
2022/09/23 08:55:13;;;;;;;7.05;3.33;;;;;;;12.41;54.13;94952.31;4210428;28;20054;-57
2022/09/23 08:57:36;;;;;;;7.20;3.70;;;;;;;12.63;53.90;94950.84;4208294;28;20079;-58
2022/09/23 08:59:41;;;;;;;5.15;4.15;;;;;;;12.67;54.44;94950.34;4201284;28;20097;-58
2022/09/23 09:01:51;;;;;;;6.40;3.97;;;;;;;12.57;54.22;94948.88;4210375;28;20086;-59
2022/09/23 09:03:59;;;;;;;3.72;2.92;;;;;;;13.01;52.65;94938.78;4211407;28;20417;-62
2022/09/23 09:06:01;;;;;;;3.90;3.33;;;;;;;13.28;52.30;94940.22;4210709;28;20067;-62
2022/09/23 09:08:03;;;;;;;6.32;3.90;;;;;;;13.51;52.46;94939.50;4212056;28;20541;-61
2022/09/23 09:10:20;;;;;;;8.15;3.47;;;;;;;13.22;52.09;94942.66;4211923;28;20052;-59
2022/09/23 09:12:41;;;;;;;4.32;3.33;;;;;;;13.58;51.15;94931.72;4211438;28;20152;-58
2022/09/23 09:14:57;;;;;;;3.53;2.90;;;;;;;13.20;51.77;94934.13;4204235;28;20055;-60
2022/09/23 09:17:28;;;;;;;4.53;3.10;;;;;;;13.29;51.69;94935.75;4194427;28;20081;-61
2022/09/23 09:19:55;;;;;;;4.95;2.92;;;;;;;13.80;50.71;94941.47;4195847;28;20114;-62
2022/09/23 09:21:57;;;;;;;4.07;2.60;;;;;;;14.04;49.18;94939.69;4195271;28;20397;-58
2022/09/23 09:23:59;;;;;;;4.50;3.08;;;;;;;13.97;49.76;94949.28;4201058;28;20054;-59
2022/09/23 09:26:02;;;;;;;6.18;3.50;;;;;;;14.01;50.30;94934.78;4210683;28;20382;-60
2022/09/23 09:28:12;;;;;;;3.70;3.03;;;;;;;13.75;50.08;94935.09;4195708;28;20041;-66
2022/09/23 09:30:15;;;;;;;5.70;4.03;;;;;;;13.22;51.45;94948.75;4197265;28;20071;-67
2022/09/23 09:32:45;;;;;;;4.32;3.65;;;;;;;12.78;53.13;94943.94;4210115;28;20044;-67
2022/09/23 09:34:53;;;;;;;4.65;3.40;;;;;;;13.02;51.92;94944.88;4210947;28;20056;-69
2022/09/23 09:37:11;;;;;;;3.20;2.78;;;;;;;13.30;50.43;94932.16;4208064;28;20044;-65
2022/09/23 09:39:13;;;;;;;5.25;3.05;;;;;;;13.64;48.84;94933.69;4211588;28;20127;-69
2022/09/23 09:41:16;;;;;;;3.13;2.08;;;;;;;13.90;46.63;94934.19;4205819;28;20063;-65
2022/09/23 09:43:22;;;;;;;3.45;1.95;;;;;;;14.26;46.29;94946.81;4201678;28;20053;-65
2022/09/23 09:45:45;;;;;;;4.53;2.78;;;;;;;14.54;46.15;94935.72;4193428;28;20048;-68
2022/09/23 09:48:02;;;;;;;3.40;2.53;;;;;;;14.87;46.13;94943.38;4200967;28;20062;-67
2022/09/23 09:50:09;;;;;;;3.65;2.67;;;;;;;14.21;47.11;94935.94;4204826;28;20042;-69
2022/09/23 09:52:12;;;;;;;5.55;3.65;;;;;;;13.90;48.74;94941.25;4205067;28;20139;-67
2022/09/23 09:54:17;;;;;;;6.85;3.00;;;;;;;13.96;48.59;94945.00;4209770;28;20467;-66
2022/09/23 09:56:25;;;;;;;3.80;2.38;;;;;;;14.26;46.96;94938.91;4210172;28;20520;-68
2022/09/23 09:58:50;;;;;;;3.50;2.40;;;;;;;14.63;46.67;94929.41;4209952;28;20080;-60